This is the latest recevied weather packets stored in our database for station/object DW9280. If no packets are shown the sender has not sent any weather packets the latest 1 day(s).
| Time | Temp. | Humidity | Pressure | Rain* | Wind** | Luminosity | Snow |
|---|---|---|---|---|---|---|---|
| 1777965428 | 9.44° C | 92% | 1012.5 hPa | 0 mm | 1.79 m/s, 34° | 84 W/m² | - |
| 1777965125 | 9.44° C | 92% | 1012.3 hPa | 0 mm | 1.79 m/s, 27° | 105 W/m² | - |
| 1777964829 | 9.44° C | 92% | 1012.4 hPa | 0 mm | 1.79 m/s, 37° | 113 W/m² | - |
| 1777964528 | 9.44° C | 92% | 1012.6 hPa | 0 mm | 1.34 m/s, 64° | 86 W/m² | - |
| 1777964229 | 9.44° C | 92% | 1012.7 hPa | 0 mm | 1.34 m/s, 30° | 63 W/m² | - |
| 1777964050 | 9.44° C | 92% | 1012.8 hPa | 0 mm | 1.34 m/s, 34° | 58 W/m² | - |
| 1777963626 | 9.44° C | 92% | 1012.8 hPa | 0 mm | 1.34 m/s, 27° | 60 W/m² | - |
| 1777963328 | 9.44° C | 92% | 1012.8 hPa | 0 mm | 0.89 m/s, 24° | 49 W/m² | - |
| 1777963028 | 9.44° C | 92% | 1012.8 hPa | 0 mm | 0.89 m/s, 41° | 46 W/m² | - |
| 1777962727 | 9.44° C | 92% | 1012.7 hPa | 0 mm | 1.34 m/s, 76° | 46 W/m² | - |
| 1777962552 | 9.44° C | 92% | 1012.7 hPa | 0 mm | 1.34 m/s, 36° | 42 W/m² | - |
| 1777962128 | 9.44° C | 92% | 1012.7 hPa | 0 mm | 1.34 m/s, 34° | 39 W/m² | - |
| 1777961952 | 9.44° C | 92% | 1012.6 hPa | 0 mm | 1.34 m/s, 54° | 35 W/m² | - |
| 1777961577 | 9.44° C | 91% | 1012.6 hPa | 0 mm | 1.34 m/s, 16° | 33 W/m² | - |
| 1777961353 | 9.44° C | 91% | 1012.5 hPa | 0 mm | 1.34 m/s, 47° | 33 W/m² | - |
| 1777960926 | 9.44° C | 91% | 1012.5 hPa | 0 mm | 1.34 m/s, 42° | 32 W/m² | - |
| 1777960629 | 9.44° C | 91% | 1012.5 hPa | 0 mm | 1.79 m/s, 45° | 30 W/m² | - |
| 1777960451 | 9.44° C | 91% | 1012.4 hPa | 0 mm | 1.79 m/s, 56° | 32 W/m² | - |
| 1777960188 | 9.44° C | 91% | 1012.4 hPa | 0 mm | 1.34 m/s, 33° | 32 W/m² | - |
| 1777959851 | 9.44° C | 91% | 1012.4 hPa | 0 mm | 1.34 m/s, 19° | 28 W/m² | - |
| 1777959550 | 9.44° C | 91% | 1012.4 hPa | 0 mm | 1.34 m/s, 46° | 25 W/m² | - |
| 1777959127 | 9.44° C | 91% | 1012.3 hPa | 0 mm | 1.34 m/s, 47° | 25 W/m² | - |
| 1777958826 | 9.44° C | 90% | 1012.3 hPa | 0 mm | 1.79 m/s, 45° | 21 W/m² | - |
| 1777958528 | 9.44° C | 90% | 1012.1 hPa | 0 mm | 1.79 m/s, 36° | 21 W/m² | - |
| 1777958227 | 9.44° C | 90% | 1012.1 hPa | 0 mm | 1.79 m/s, 37° | 19 W/m² | - |
* Rain latest hour (hover to see other rain measurements)
** Current wind speed in m/s (hover to see current wind gust speed)